createdAt,value
2023-05-11T00:04:42.743Z,66.00
2023-05-11T00:09:51.032Z,67.00
2023-05-11T00:15:00.065Z,66.50
2023-05-11T00:20:08.877Z,66.50
2023-05-11T00:25:17.899Z,66.30
2023-05-11T00:30:26.273Z,65.50
2023-05-11T00:35:35.109Z,66.10
2023-05-11T00:40:43.894Z,65.50
2023-05-11T00:45:52.638Z,65.50
2023-05-11T00:51:01.192Z,66.00
2023-05-11T00:56:10.126Z,65.60
2023-05-11T01:01:18.986Z,66.20
2023-05-11T01:06:27.700Z,65.50
2023-05-11T01:11:36.389Z,65.50
2023-05-11T01:16:45.442Z,66.20
2023-05-11T01:21:53.999Z,65.50
2023-05-11T01:27:03.167Z,65.10
2023-05-11T01:32:11.725Z,64.40
2023-05-11T01:37:20.925Z,63.80
2023-05-11T01:42:29.438Z,64.30
2023-05-11T01:47:38.669Z,64.40
2023-05-11T01:52:47.097Z,64.90
2023-05-11T01:57:55.840Z,64.50
2023-05-11T02:03:04.470Z,64.60
2023-05-11T02:08:13.407Z,65.30
2023-05-11T02:13:21.954Z,65.90
2023-05-11T02:18:30.860Z,65.60
2023-05-11T02:23:39.312Z,65.30
2023-05-11T02:28:47.903Z,65.40
2023-05-11T02:33:56.115Z,66.50
2023-05-11T02:39:05.694Z,66.60
2023-05-11T02:44:14.281Z,66.60
2023-05-11T02:49:23.460Z,66.70
2023-05-11T02:54:32.062Z,66.70
2023-05-11T02:59:40.797Z,66.90
2023-05-11T03:04:49.522Z,66.70
2023-05-11T03:09:58.713Z,66.50
2023-05-11T03:15:07.607Z,66.30
2023-05-11T03:20:16.355Z,66.10
2023-05-11T03:25:25.287Z,66.20
2023-05-11T03:30:34.443Z,66.30
2023-05-11T03:35:43.123Z,66.50
2023-05-11T03:40:52.216Z,66.10
2023-05-11T03:46:00.824Z,66.00
2023-05-11T03:51:09.974Z,66.30
2023-05-11T03:56:18.838Z,65.40
2023-05-11T04:01:27.795Z,65.60
2023-05-11T04:06:36.169Z,63.50
2023-05-11T04:11:45.313Z,59.50
2023-05-11T04:16:54.252Z,59.10
2023-05-11T04:22:03.269Z,58.60
2023-05-11T04:27:11.685Z,57.10
2023-05-11T04:32:20.496Z,54.50
2023-05-11T04:37:29.494Z,60.00
2023-05-11T04:42:38.697Z,56.30
2023-05-11T04:47:47.286Z,55.90
2023-05-11T04:52:56.286Z,53.90
2023-05-11T04:58:05.059Z,53.00
2023-05-11T05:03:14.316Z,52.30
2023-05-11T05:08:23.318Z,52.10
2023-05-11T05:13:32.882Z,52.00
2023-05-11T05:18:41.469Z,52.00
2023-05-11T05:23:50.839Z,51.30
2023-05-11T05:29:00.032Z,50.70
2023-05-11T05:34:09.403Z,48.50
2023-05-11T05:39:18.515Z,47.80
2023-05-11T05:44:27.846Z,48.30
2023-05-11T05:49:36.447Z,47.80
2023-05-11T05:54:45.786Z,46.10
2023-05-11T05:59:54.233Z,47.50
2023-05-11T06:05:03.648Z,44.60
2023-05-11T06:10:12.505Z,44.70
2023-05-11T06:15:21.915Z,45.30
2023-05-11T06:20:31.134Z,44.60
2023-05-11T06:25:40.354Z,45.60
2023-05-11T06:30:49.965Z,44.00
2023-05-11T06:35:58.628Z,43.40
2023-05-11T06:41:07.290Z,43.50
2023-05-11T06:46:17.073Z,42.80
2023-05-11T06:51:25.570Z,41.70
2023-05-11T06:56:34.726Z,42.00
2023-05-11T07:01:43.348Z,41.90
2023-05-11T07:06:52.785Z,40.10
2023-05-11T07:12:01.564Z,41.00
2023-05-11T07:17:10.836Z,43.00
2023-05-11T07:22:19.592Z,41.70
2023-05-11T07:27:29.083Z,42.60
2023-05-11T07:32:38.080Z,42.30
2023-05-11T07:37:47.021Z,40.50
2023-05-11T07:42:55.725Z,39.50
2023-05-11T07:48:04.642Z,40.80
2023-05-11T07:58:22.041Z,40.10
2023-05-11T08:03:30.917Z,40.40
2023-05-11T08:18:58.454Z,36.20
2023-05-11T08:24:06.808Z,37.50
2023-05-11T08:29:15.670Z,34.30
2023-05-11T08:34:24.514Z,34.10
2023-05-11T08:39:46.622Z,34.00
2023-05-11T08:44:42.312Z,36.00
2023-05-11T08:49:51.340Z,35.60
2023-05-11T08:54:59.964Z,36.60
2023-05-11T09:00:09.431Z,32.90
2023-05-11T09:05:18.186Z,33.00
2023-05-11T09:10:26.395Z,32.80
2023-05-11T09:15:38.049Z,32.80
2023-05-11T09:20:44.884Z,33.30
2023-05-11T09:25:53.808Z,35.50
2023-05-11T09:31:02.693Z,36.80
2023-05-11T09:36:11.465Z,31.00
2023-05-11T09:41:20.410Z,30.90
2023-05-11T09:46:29.198Z,34.70
2023-05-11T09:51:38.311Z,32.50
2023-05-11T09:56:47.048Z,32.20
2023-05-11T10:01:56.211Z,35.80
2023-05-11T10:07:04.704Z,33.50
2023-05-11T10:12:14.078Z,31.50
2023-05-11T10:17:22.675Z,36.60
2023-05-11T10:22:31.657Z,31.50
2023-05-11T10:27:40.590Z,32.70
2023-05-11T10:32:50.209Z,33.60
2023-05-11T10:37:59.117Z,34.00
2023-05-11T10:43:07.673Z,35.40
2023-05-11T10:48:16.450Z,34.20
2023-05-11T10:53:25.712Z,35.90
2023-05-11T10:58:34.269Z,31.30
2023-05-11T11:03:43.737Z,29.90
2023-05-11T11:08:52.522Z,30.70
2023-05-11T11:14:01.551Z,29.70
2023-05-11T11:19:10.676Z,32.10
2023-05-11T11:24:20.334Z,34.80
2023-05-11T11:29:29.229Z,30.60
2023-05-11T11:34:38.233Z,34.00
2023-05-11T11:39:47.084Z,30.90
2023-05-11T11:44:56.136Z,29.90
2023-05-11T11:50:04.987Z,31.80
2023-05-11T11:55:13.891Z,30.40
2023-05-11T12:00:23.029Z,30.90
2023-05-11T12:05:33.138Z,29.60
2023-05-11T12:10:31.756Z,31.40
2023-05-11T12:15:40.689Z,35.00
2023-05-11T12:20:49.825Z,30.20
2023-05-11T12:25:58.769Z,29.70
2023-05-11T12:31:07.517Z,32.30
2023-05-11T12:36:17.333Z,30.00
2023-05-11T12:41:25.982Z,33.20
2023-05-11T12:46:35.666Z,35.10
2023-05-11T12:51:44.091Z,35.40
2023-05-11T12:56:52.593Z,36.50
2023-05-11T13:02:01.724Z,38.00
2023-05-11T13:17:29.104Z,43.10
2023-05-11T13:22:37.678Z,42.30
2023-05-11T13:27:47.498Z,41.30
2023-05-11T13:32:56.473Z,39.70
2023-05-11T13:43:14.633Z,39.60
2023-05-11T13:48:23.862Z,40.30
2023-05-11T13:53:32.744Z,37.80
2023-05-11T13:58:41.604Z,37.90
2023-05-11T14:03:50.408Z,37.70
2023-05-11T14:08:59.283Z,37.00
2023-05-11T14:14:07.752Z,37.30
2023-05-11T14:19:17.206Z,37.60
2023-05-11T14:24:25.711Z,33.50
2023-05-11T14:29:34.564Z,37.20
2023-05-11T14:34:42.986Z,37.80
2023-05-11T14:39:52.313Z,36.80
2023-05-11T14:45:00.872Z,36.70
2023-05-11T14:50:09.989Z,36.50
2023-05-11T14:55:19.217Z,35.80
2023-05-11T15:00:27.430Z,34.00
2023-05-11T15:05:36.403Z,34.90
2023-05-11T15:10:45.289Z,34.90
2023-05-11T15:15:54.147Z,33.10
2023-05-11T15:21:03.078Z,31.00
2023-05-11T15:26:11.582Z,31.20
2023-05-11T15:31:20.629Z,28.20
2023-05-11T15:36:29.896Z,29.20
2023-05-11T15:41:38.308Z,27.70
2023-05-11T15:46:50.593Z,27.40
2023-05-11T15:51:49.596Z,27.80
2023-05-11T15:56:58.317Z,27.20
2023-05-11T16:02:07.810Z,27.70
2023-05-11T16:07:16.749Z,28.50
2023-05-11T16:12:25.385Z,29.10
2023-05-11T16:17:34.343Z,28.60
2023-05-11T16:22:43.189Z,28.40
2023-05-11T16:27:51.586Z,27.80
2023-05-11T16:33:00.512Z,28.30
2023-05-11T16:38:09.165Z,29.00
2023-05-11T16:43:17.471Z,29.40
2023-05-11T16:48:26.106Z,31.00
2023-05-11T16:53:34.913Z,30.80
2023-05-11T16:58:44.263Z,31.60
2023-05-11T17:03:54.330Z,31.90
2023-05-11T17:08:53.203Z,33.80
2023-05-11T17:14:02.266Z,34.30
2023-05-11T17:19:11.081Z,34.40
2023-05-11T17:24:20.145Z,35.70
2023-05-11T17:29:28.556Z,37.60
2023-05-11T17:34:38.024Z,39.40
2023-05-11T17:39:47.898Z,40.80
2023-05-11T17:44:55.342Z,41.00
2023-05-11T17:50:04.048Z,43.70
2023-05-11T18:00:22.505Z,45.00
2023-05-11T18:05:44.884Z,47.30
2023-05-11T18:10:40.725Z,48.10
2023-05-11T18:15:49.894Z,49.20
2023-05-11T18:20:58.774Z,49.80
2023-05-11T18:26:07.706Z,50.40
2023-05-11T18:31:16.301Z,51.30
2023-05-11T18:36:24.987Z,55.10
2023-05-11T18:41:33.907Z,53.40
2023-05-11T18:46:42.786Z,54.90
2023-05-11T18:51:51.521Z,55.80
2023-05-11T18:57:00.600Z,56.60
2023-05-11T19:02:10.326Z,57.30
2023-05-11T19:07:20.396Z,57.90
2023-05-11T19:12:28.322Z,56.80
2023-05-11T19:17:38.624Z,56.70
2023-05-11T19:22:37.430Z,58.20
2023-05-11T19:27:46.790Z,58.70
2023-05-11T19:32:55.882Z,58.80
2023-05-11T19:38:04.944Z,59.40
2023-05-11T19:43:13.537Z,60.00
2023-05-11T19:48:22.685Z,59.90
2023-05-11T19:53:31.118Z,59.50
2023-05-11T19:58:39.857Z,58.90
2023-05-11T20:03:48.730Z,59.40
2023-05-11T20:08:57.410Z,59.70
2023-05-11T20:14:06.166Z,60.00
2023-05-11T20:19:16.471Z,60.40
2023-05-11T20:24:14.756Z,60.80
2023-05-11T20:29:23.850Z,61.10
2023-05-11T20:34:32.838Z,62.10
2023-05-11T20:39:42.150Z,64.00
2023-05-11T20:44:51.013Z,63.00
2023-05-11T20:50:03.095Z,62.80
2023-05-11T20:55:01.789Z,62.40
2023-05-11T21:00:10.780Z,62.90
2023-05-11T21:05:19.640Z,63.50
2023-05-11T21:10:28.841Z,64.00
2023-05-11T21:15:37.199Z,64.10
2023-05-11T21:20:46.164Z,64.10
2023-05-11T21:25:54.840Z,64.20
2023-05-11T21:31:03.908Z,63.80
2023-05-11T21:36:12.955Z,64.50
2023-05-11T21:41:22.069Z,64.20
2023-05-11T21:46:30.689Z,65.20
2023-05-11T21:51:39.494Z,65.40
2023-05-11T21:56:48.046Z,65.70
2023-05-11T22:01:57.113Z,65.70
2023-05-11T22:07:05.809Z,65.70
2023-05-11T22:12:14.620Z,66.00
2023-05-11T22:17:23.784Z,66.30
2023-05-11T22:22:33.034Z,66.60
2023-05-11T22:27:41.919Z,67.20
2023-05-11T22:32:50.986Z,66.60
2023-05-11T22:37:59.317Z,66.50
2023-05-11T22:43:07.898Z,67.40
2023-05-11T22:48:16.692Z,67.60
2023-05-11T22:53:26.115Z,67.40
2023-05-11T22:58:34.597Z,68.00
2023-05-11T23:03:43.673Z,67.70
2023-05-11T23:08:52.525Z,67.50
2023-05-11T23:14:01.680Z,68.30
2023-05-11T23:19:10.374Z,68.30
2023-05-11T23:24:19.501Z,68.70
2023-05-11T23:29:28.409Z,68.50
2023-05-11T23:34:37.725Z,67.90
2023-05-11T23:39:47.025Z,68.50
2023-05-11T23:44:56.173Z,69.00
2023-05-11T23:50:04.682Z,68.90
2023-05-11T23:55:13.837Z,69.00
